sensor_id;sensor_type;location;lat;lon;timestamp;temperature;humidity
21085;DHT22;34247;50.064;19.970;2023-03-01T00:00:32;18.00;23.50
21085;DHT22;34247;50.064;19.970;2023-03-01T00:01:36;18.00;23.60
21085;DHT22;34247;50.064;19.970;2023-03-01T00:02:40;18.00;23.60
21085;DHT22;34247;50.064;19.970;2023-03-01T00:03:44;18.00;23.60
21085;DHT22;34247;50.064;19.970;2023-03-01T00:04:49;18.00;23.70
21085;DHT22;34247;50.064;19.970;2023-03-01T00:05:52;18.00;23.70
21085;DHT22;34247;50.064;19.970;2023-03-01T00:06:56;18.00;23.70
21085;DHT22;34247;50.064;19.970;2023-03-01T00:08:01;18.00;23.70
21085;DHT22;34247;50.064;19.970;2023-03-01T00:09:06;18.00;23.70
21085;DHT22;34247;50.064;19.970;2023-03-01T00:10:12;18.00;23.60
21085;DHT22;34247;50.064;19.970;2023-03-01T00:11:22;18.00;23.60
21085;DHT22;34247;50.064;19.970;2023-03-01T00:12:28;18.00;23.60
21085;DHT22;34247;50.064;19.970;2023-03-01T00:13:33;18.00;23.70
21085;DHT22;34247;50.064;19.970;2023-03-01T00:14:41;18.00;23.60
21085;DHT22;34247;50.064;19.970;2023-03-01T00:15:45;17.90;23.70
21085;DHT22;34247;50.064;19.970;2023-03-01T00:16:49;17.90;23.70
21085;DHT22;34247;50.064;19.970;2023-03-01T00:17:52;17.90;23.70
21085;DHT22;34247;50.064;19.970;2023-03-01T00:18:59;17.90;23.70
21085;DHT22;34247;50.064;19.970;2023-03-01T00:20:04;17.90;23.70
21085;DHT22;34247;50.064;19.970;2023-03-01T00:21:15;17.90;23.70
21085;DHT22;34247;50.064;19.970;2023-03-01T00:22:19;17.90;23.70
21085;DHT22;34247;50.064;19.970;2023-03-01T00:23:23;17.90;23.70
21085;DHT22;34247;50.064;19.970;2023-03-01T00:24:28;17.90;23.70
21085;DHT22;34247;50.064;19.970;2023-03-01T00:25:32;17.90;23.70
21085;DHT22;34247;50.064;19.970;2023-03-01T00:26:36;17.90;23.70
21085;DHT22;34247;50.064;19.970;2023-03-01T00:27:40;17.90;23.70
21085;DHT22;34247;50.064;19.970;2023-03-01T00:28:45;17.90;23.70
21085;DHT22;34247;50.064;19.970;2023-03-01T00:29:49;17.90;23.70
21085;DHT22;34247;50.064;19.970;2023-03-01T00:30:53;17.90;23.80
21085;DHT22;34247;50.064;19.970;2023-03-01T00:32:09;17.90;23.80
21085;DHT22;34247;50.064;19.970;2023-03-01T00:33:15;17.90;23.70
21085;DHT22;34247;50.064;19.970;2023-03-01T00:34:19;17.80;23.80
21085;DHT22;34247;50.064;19.970;2023-03-01T00:35:23;17.80;23.70
21085;DHT22;34247;50.064;19.970;2023-03-01T00:36:32;17.80;23.70
21085;DHT22;34247;50.064;19.970;2023-03-01T00:37:38;17.80;23.70
21085;DHT22;34247;50.064;19.970;2023-03-01T00:38:44;17.80;23.70
21085;DHT22;34247;50.064;19.970;2023-03-01T00:39:49;17.80;23.70
21085;DHT22;34247;50.064;19.970;2023-03-01T00:40:54;17.80;23.70
21085;DHT22;34247;50.064;19.970;2023-03-01T00:41:58;17.80;23.70
21085;DHT22;34247;50.064;19.970;2023-03-01T00:43:03;17.80;23.80
21085;DHT22;34247;50.064;19.970;2023-03-01T00:44:12;17.80;23.80
21085;DHT22;34247;50.064;19.970;2023-03-01T00:45:17;17.80;23.80
21085;DHT22;34247;50.064;19.970;2023-03-01T00:46:26;17.80;23.80
21085;DHT22;34247;50.064;19.970;2023-03-01T00:47:30;17.70;23.80
21085;DHT22;34247;50.064;19.970;2023-03-01T00:48:35;17.80;23.80
21085;DHT22;34247;50.064;19.970;2023-03-01T00:49:40;17.70;23.70
21085;DHT22;34247;50.064;19.970;2023-03-01T00:50:44;17.70;23.70
21085;DHT22;34247;50.064;19.970;2023-03-01T00:51:47;17.70;23.70
21085;DHT22;34247;50.064;19.970;2023-03-01T00:52:55;17.70;23.70
21085;DHT22;34247;50.064;19.970;2023-03-01T00:54:02;17.70;23.70
21085;DHT22;34247;50.064;19.970;2023-03-01T00:55:11;17.70;23.80
21085;DHT22;34247;50.064;19.970;2023-03-01T00:56:16;17.70;23.70
21085;DHT22;34247;50.064;19.970;2023-03-01T00:57:20;17.70;23.80
21085;DHT22;34247;50.064;19.970;2023-03-01T00:58:24;17.70;23.80
21085;DHT22;34247;50.064;19.970;2023-03-01T00:59:28;17.70;23.90
21085;DHT22;34247;50.064;19.970;2023-03-01T01:00:32;17.70;23.90
21085;DHT22;34247;50.064;19.970;2023-03-01T01:01:37;17.70;23.90
21085;DHT22;34247;50.064;19.970;2023-03-01T01:02:41;17.70;23.90
21085;DHT22;34247;50.064;19.970;2023-03-01T01:03:51;17.70;23.90
21085;DHT22;34247;50.064;19.970;2023-03-01T01:04:57;17.70;23.90
21085;DHT22;34247;50.064;19.970;2023-03-01T01:06:28;17.70;24.00
21085;DHT22;34247;50.064;19.970;2023-03-01T01:07:36;17.70;24.10
21085;DHT22;34247;50.064;19.970;2023-03-01T01:08:40;17.70;24.10
21085;DHT22;34247;50.064;19.970;2023-03-01T01:09:44;17.60;24.10
21085;DHT22;34247;50.064;19.970;2023-03-01T01:10:49;17.60;24.10
21085;DHT22;34247;50.064;19.970;2023-03-01T01:11:53;17.60;24.10
21085;DHT22;34247;50.064;19.970;2023-03-01T01:12:57;17.60;24.10
21085;DHT22;34247;50.064;19.970;2023-03-01T01:14:02;17.60;24.10
21085;DHT22;34247;50.064;19.970;2023-03-01T01:15:13;17.70;24.20
21085;DHT22;34247;50.064;19.970;2023-03-01T01:16:21;17.60;24.20
21085;DHT22;34247;50.064;19.970;2023-03-01T01:17:26;17.60;24.20
21085;DHT22;34247;50.064;19.970;2023-03-01T01:18:30;17.60;24.10
21085;DHT22;34247;50.064;19.970;2023-03-01T01:19:34;17.60;24.20
21085;DHT22;34247;50.064;19.970;2023-03-01T01:20:37;17.60;24.20
21085;DHT22;34247;50.064;19.970;2023-03-01T01:21:42;17.60;24.20
21085;DHT22;34247;50.064;19.970;2023-03-01T01:22:46;17.60;24.10
21085;DHT22;34247;50.064;19.970;2023-03-01T01:23:51;17.60;24.10
21085;DHT22;34247;50.064;19.970;2023-03-01T01:25:03;17.60;24.20
21085;DHT22;34247;50.064;19.970;2023-03-01T01:26:23;17.60;24.20
21085;DHT22;34247;50.064;19.970;2023-03-01T01:27:33;17.60;24.20
21085;DHT22;34247;50.064;19.970;2023-03-01T01:28:37;17.60;24.20
21085;DHT22;34247;50.064;19.970;2023-03-01T01:29:41;17.60;24.20
21085;DHT22;34247;50.064;19.970;2023-03-01T01:30:47;17.60;24.10
21085;DHT22;34247;50.064;19.970;2023-03-01T01:31:51;17.60;24.10
21085;DHT22;34247;50.064;19.970;2023-03-01T01:32:55;17.60;24.20
21085;DHT22;34247;50.064;19.970;2023-03-01T01:34:01;17.60;24.20
21085;DHT22;34247;50.064;19.970;2023-03-01T01:35:10;17.60;24.10
21085;DHT22;34247;50.064;19.970;2023-03-01T01:36:16;17.60;24.00
21085;DHT22;34247;50.064;19.970;2023-03-01T01:37:23;17.60;24.00
21085;DHT22;34247;50.064;19.970;2023-03-01T01:38:35;17.60;24.00
21085;DHT22;34247;50.064;19.970;2023-03-01T01:39:41;17.60;24.10
21085;DHT22;34247;50.064;19.970;2023-03-01T01:40:49;17.60;24.10
21085;DHT22;34247;50.064;19.970;2023-03-01T01:41:54;17.60;24.10
21085;DHT22;34247;50.064;19.970;2023-03-01T01:42:58;17.60;24.10
21085;DHT22;34247;50.064;19.970;2023-03-01T01:44:29;17.60;24.10
21085;DHT22;34247;50.064;19.970;2023-03-01T01:45:35;17.60;24.00
21085;DHT22;34247;50.064;19.970;2023-03-01T01:48:02;17.60;24.10
21085;DHT22;34247;50.064;19.970;2023-03-01T01:51:01;17.60;24.10
21085;DHT22;34247;50.064;19.970;2023-03-01T01:53:26;17.60;24.10
21085;DHT22;34247;50.064;19.970;2023-03-01T01:55:00;17.60;24.10
21085;DHT22;34247;50.064;19.970;2023-03-01T01:56:13;17.60;24.10
21085;DHT22;34247;50.064;19.970;2023-03-01T01:57:26;17.60;24.10
21085;DHT22;34247;50.064;19.970;2023-03-01T01:58:37;17.60;24.10
21085;DHT22;34247;50.064;19.970;2023-03-01T01:59:47;17.60;24.10
21085;DHT22;34247;50.064;19.970;2023-03-01T02:00:54;17.60;24.70
21085;DHT22;34247;50.064;19.970;2023-03-01T02:02:02;17.60;24.20
21085;DHT22;34247;50.064;19.970;2023-03-01T02:03:28;17.60;24.20
21085;DHT22;34247;50.064;19.970;2023-03-01T02:04:37;17.60;24.10
21085;DHT22;34247;50.064;19.970;2023-03-01T02:05:53;17.60;24.10
21085;DHT22;34247;50.064;19.970;2023-03-01T02:07:06;17.60;24.20
21085;DHT22;34247;50.064;19.970;2023-03-01T02:08:20;17.50;24.10
21085;DHT22;34247;50.064;19.970;2023-03-01T02:09:27;17.50;24.10
21085;DHT22;34247;50.064;19.970;2023-03-01T02:10:33;17.50;24.10
21085;DHT22;34247;50.064;19.970;2023-03-01T02:11:43;17.50;24.20
21085;DHT22;34247;50.064;19.970;2023-03-01T02:12:47;17.50;24.60
21085;DHT22;34247;50.064;19.970;2023-03-01T02:13:52;17.50;24.10
21085;DHT22;34247;50.064;19.970;2023-03-01T02:14:58;17.50;24.10
21085;DHT22;34247;50.064;19.970;2023-03-01T02:16:08;17.50;24.20
21085;DHT22;34247;50.064;19.970;2023-03-01T02:17:17;17.50;24.20
21085;DHT22;34247;50.064;19.970;2023-03-01T02:18:23;17.50;24.20
21085;DHT22;34247;50.064;19.970;2023-03-01T02:20:03;17.50;24.10
21085;DHT22;34247;50.064;19.970;2023-03-01T02:21:41;17.50;24.10
21085;DHT22;34247;50.064;19.970;2023-03-01T02:22:56;17.50;24.10
21085;DHT22;34247;50.064;19.970;2023-03-01T02:27:36;17.50;24.10
21085;DHT22;34247;50.064;19.970;2023-03-01T02:28:49;17.50;24.10
21085;DHT22;34247;50.064;19.970;2023-03-01T02:29:54;17.50;24.10
21085;DHT22;34247;50.064;19.970;2023-03-01T02:31:01;17.50;24.10
21085;DHT22;34247;50.064;19.970;2023-03-01T02:32:26;17.40;24.10
21085;DHT22;34247;50.064;19.970;2023-03-01T02:33:31;17.40;24.10
21085;DHT22;34247;50.064;19.970;2023-03-01T02:34:39;17.40;24.10
21085;DHT22;34247;50.064;19.970;2023-03-01T02:35:43;17.40;24.10
21085;DHT22;34247;50.064;19.970;2023-03-01T02:37:05;17.50;24.20
21085;DHT22;34247;50.064;19.970;2023-03-01T02:38:16;17.40;24.10
21085;DHT22;34247;50.064;19.970;2023-03-01T02:39:26;17.40;24.10
21085;DHT22;34247;50.064;19.970;2023-03-01T02:40:38;17.40;24.10
21085;DHT22;34247;50.064;19.970;2023-03-01T02:41:48;17.40;24.10
21085;DHT22;34247;50.064;19.970;2023-03-01T02:42:58;17.40;24.10
21085;DHT22;34247;50.064;19.970;2023-03-01T02:44:03;17.40;24.10
21085;DHT22;34247;50.064;19.970;2023-03-01T02:45:16;17.40;24.10
21085;DHT22;34247;50.064;19.970;2023-03-01T02:46:24;17.40;24.10
21085;DHT22;34247;50.064;19.970;2023-03-01T02:47:29;17.40;24.10
21085;DHT22;34247;50.064;19.970;2023-03-01T02:48:43;17.40;24.10
21085;DHT22;34247;50.064;19.970;2023-03-01T02:49:55;17.40;24.10
21085;DHT22;34247;50.064;19.970;2023-03-01T02:51:18;17.40;24.10
21085;DHT22;34247;50.064;19.970;2023-03-01T02:52:45;17.40;24.10
21085;DHT22;34247;50.064;19.970;2023-03-01T02:54:08;17.40;24.10
21085;DHT22;34247;50.064;19.970;2023-03-01T02:55:17;17.30;24.10
21085;DHT22;34247;50.064;19.970;2023-03-01T02:56:21;17.30;24.10
21085;DHT22;34247;50.064;19.970;2023-03-01T02:57:27;17.30;24.10
21085;DHT22;34247;50.064;19.970;2023-03-01T02:58:33;17.30;24.20
21085;DHT22;34247;50.064;19.970;2023-03-01T02:59:49;17.30;24.10
21085;DHT22;34247;50.064;19.970;2023-03-01T03:00:55;17.30;24.10
21085;DHT22;34247;50.064;19.970;2023-03-01T03:02:01;17.30;24.10
21085;DHT22;34247;50.064;19.970;2023-03-01T03:03:13;17.30;24.20
21085;DHT22;34247;50.064;19.970;2023-03-01T03:04:19;17.30;24.10
21085;DHT22;34247;50.064;19.970;2023-03-01T03:05:28;17.30;24.10
21085;DHT22;34247;50.064;19.970;2023-03-01T03:06:34;17.30;24.10
21085;DHT22;34247;50.064;19.970;2023-03-01T03:07:40;17.30;24.10
21085;DHT22;34247;50.064;19.970;2023-03-01T03:08:46;17.30;24.10
21085;DHT22;34247;50.064;19.970;2023-03-01T03:09:50;17.30;24.70
21085;DHT22;34247;50.064;19.970;2023-03-01T03:10:54;17.30;24.20
21085;DHT22;34247;50.064;19.970;2023-03-01T03:11:59;17.30;24.10
21085;DHT22;34247;50.064;19.970;2023-03-01T03:13:05;17.30;24.10
21085;DHT22;34247;50.064;19.970;2023-03-01T03:14:14;17.30;24.10
21085;DHT22;34247;50.064;19.970;2023-03-01T03:15:20;17.30;24.00
21085;DHT22;34247;50.064;19.970;2023-03-01T03:16:25;17.30;24.00
21085;DHT22;34247;50.064;19.970;2023-03-01T03:17:29;17.30;24.10
21085;DHT22;34247;50.064;19.970;2023-03-01T03:18:33;17.30;24.10
21085;DHT22;34247;50.064;19.970;2023-03-01T03:19:37;17.30;24.10
21085;DHT22;34247;50.064;19.970;2023-03-01T03:20:44;17.30;24.10
21085;DHT22;34247;50.064;19.970;2023-03-01T03:21:49;17.30;24.00
21085;DHT22;34247;50.064;19.970;2023-03-01T03:22:55;17.30;24.00
21085;DHT22;34247;50.064;19.970;2023-03-01T03:24:02;17.30;24.00
21085;DHT22;34247;50.064;19.970;2023-03-01T03:25:11;17.30;24.00
21085;DHT22;34247;50.064;19.970;2023-03-01T03:26:15;17.30;24.00
21085;DHT22;34247;50.064;19.970;2023-03-01T03:27:19;17.30;24.10
21085;DHT22;34247;50.064;19.970;2023-03-01T03:28:23;17.30;24.10
21085;DHT22;34247;50.064;19.970;2023-03-01T03:29:27;17.30;24.00
21085;DHT22;34247;50.064;19.970;2023-03-01T03:30:31;17.20;24.00
21085;DHT22;34247;50.064;19.970;2023-03-01T03:31:35;17.30;24.10
21085;DHT22;34247;50.064;19.970;2023-03-01T03:32:39;17.20;24.10
21085;DHT22;34247;50.064;19.970;2023-03-01T03:33:44;17.30;24.10
21085;DHT22;34247;50.064;19.970;2023-03-01T03:34:48;17.20;24.60
21085;DHT22;34247;50.064;19.970;2023-03-01T03:35:52;17.30;24.10
21085;DHT22;34247;50.064;19.970;2023-03-01T03:36:56;17.30;24.10
21085;DHT22;34247;50.064;19.970;2023-03-01T03:38:05;17.20;24.00
21085;DHT22;34247;50.064;19.970;2023-03-01T03:39:20;17.20;24.10
21085;DHT22;34247;50.064;19.970;2023-03-01T03:40:24;17.20;24.00
21085;DHT22;34247;50.064;19.970;2023-03-01T03:41:30;17.20;24.00
21085;DHT22;34247;50.064;19.970;2023-03-01T03:42:34;17.20;24.10
21085;DHT22;34247;50.064;19.970;2023-03-01T03:43:39;17.20;24.00
21085;DHT22;34247;50.064;19.970;2023-03-01T03:44:45;17.20;24.00
21085;DHT22;34247;50.064;19.970;2023-03-01T03:45:50;17.20;24.30
21085;DHT22;34247;50.064;19.970;2023-03-01T03:46:55;17.10;24.10
21085;DHT22;34247;50.064;19.970;2023-03-01T03:48:00;17.20;24.10
21085;DHT22;34247;50.064;19.970;2023-03-01T03:49:05;17.10;24.10
21085;DHT22;34247;50.064;19.970;2023-03-01T03:50:14;17.10;24.10
21085;DHT22;34247;50.064;19.970;2023-03-01T03:51:19;17.10;24.10
21085;DHT22;34247;50.064;19.970;2023-03-01T03:52:25;17.10;24.00
21085;DHT22;34247;50.064;19.970;2023-03-01T03:53:29;17.10;24.00
21085;DHT22;34247;50.064;19.970;2023-03-01T03:54:33;17.10;24.10
21085;DHT22;34247;50.064;19.970;2023-03-01T03:55:37;17.10;24.00
21085;DHT22;34247;50.064;19.970;2023-03-01T03:56:42;17.10;24.10
21085;DHT22;34247;50.064;19.970;2023-03-01T03:57:47;17.10;24.10
21085;DHT22;34247;50.064;19.970;2023-03-01T03:58:55;17.10;24.10
21085;DHT22;34247;50.064;19.970;2023-03-01T03:59:59;17.10;24.10
21085;DHT22;34247;50.064;19.970;2023-03-01T04:01:03;17.10;24.10
21085;DHT22;34247;50.064;19.970;2023-03-01T04:02:12;17.10;24.10
21085;DHT22;34247;50.064;19.970;2023-03-01T04:03:17;17.10;24.20
21085;DHT22;34247;50.064;19.970;2023-03-01T04:04:22;17.10;24.10
21085;DHT22;34247;50.064;19.970;2023-03-01T04:05:26;17.10;24.20
21085;DHT22;34247;50.064;19.970;2023-03-01T04:06:31;17.10;24.10
21085;DHT22;34247;50.064;19.970;2023-03-01T04:07:36;17.10;24.10
21085;DHT22;34247;50.064;19.970;2023-03-01T04:08:41;17.10;24.10
21085;DHT22;34247;50.064;19.970;2023-03-01T04:09:45;17.10;24.10
21085;DHT22;34247;50.064;19.970;2023-03-01T04:10:51;17.00;24.10
21085;DHT22;34247;50.064;19.970;2023-03-01T04:12:00;17.00;24.10
21085;DHT22;34247;50.064;19.970;2023-03-01T04:13:09;17.00;24.20
21085;DHT22;34247;50.064;19.970;2023-03-01T04:14:17;17.00;24.20
21085;DHT22;34247;50.064;19.970;2023-03-01T04:15:21;17.00;24.10
21085;DHT22;34247;50.064;19.970;2023-03-01T04:16:27;17.00;24.10
21085;DHT22;34247;50.064;19.970;2023-03-01T04:17:32;17.00;24.20
21085;DHT22;34247;50.064;19.970;2023-03-01T04:18:37;17.00;24.20
21085;DHT22;34247;50.064;19.970;2023-03-01T04:19:41;17.00;24.20
21085;DHT22;34247;50.064;19.970;2023-03-01T04:20:48;17.00;24.20
21085;DHT22;34247;50.064;19.970;2023-03-01T04:21:53;17.00;24.20
21085;DHT22;34247;50.064;19.970;2023-03-01T04:23:06;17.00;24.20
21085;DHT22;34247;50.064;19.970;2023-03-01T04:24:23;17.00;24.20
21085;DHT22;34247;50.064;19.970;2023-03-01T04:25:28;17.00;24.20
21085;DHT22;34247;50.064;19.970;2023-03-01T04:26:32;17.00;24.20
21085;DHT22;34247;50.064;19.970;2023-03-01T04:27:36;17.00;24.20
21085;DHT22;34247;50.064;19.970;2023-03-01T04:28:41;16.90;24.20
21085;DHT22;34247;50.064;19.970;2023-03-01T04:29:49;17.00;24.20
21085;DHT22;34247;50.064;19.970;2023-03-01T04:30:55;16.90;24.10
21085;DHT22;34247;50.064;19.970;2023-03-01T04:32:00;16.90;24.20
21085;DHT22;34247;50.064;19.970;2023-03-01T04:33:08;16.90;24.20
21085;DHT22;34247;50.064;19.970;2023-03-01T04:34:13;16.90;24.20
21085;DHT22;34247;50.064;19.970;2023-03-01T04:35:17;16.90;24.20
21085;DHT22;34247;50.064;19.970;2023-03-01T04:36:24;16.90;24.20
21085;DHT22;34247;50.064;19.970;2023-03-01T04:37:30;16.90;24.20
21085;DHT22;34247;50.064;19.970;2023-03-01T04:38:35;16.90;24.20
21085;DHT22;34247;50.064;19.970;2023-03-01T04:39:40;16.90;24.20
21085;DHT22;34247;50.064;19.970;2023-03-01T04:40:49;16.90;24.20
21085;DHT22;34247;50.064;19.970;2023-03-01T04:41:53;16.90;24.20
21085;DHT22;34247;50.064;19.970;2023-03-01T04:42:57;16.90;24.20
21085;DHT22;34247;50.064;19.970;2023-03-01T04:44:01;16.90;24.20
21085;DHT22;34247;50.064;19.970;2023-03-01T04:45:11;16.90;24.10
21085;DHT22;34247;50.064;19.970;2023-03-01T04:46:20;16.90;24.10
21085;DHT22;34247;50.064;19.970;2023-03-01T04:47:32;16.80;24.10
21085;DHT22;34247;50.064;19.970;2023-03-01T04:48:37;16.90;24.20
21085;DHT22;34247;50.064;19.970;2023-03-01T04:49:44;16.80;24.10
21085;DHT22;34247;50.064;19.970;2023-03-01T04:50:48;16.90;24.10
21085;DHT22;34247;50.064;19.970;2023-03-01T04:51:51;16.90;24.70
21085;DHT22;34247;50.064;19.970;2023-03-01T04:52:55;16.90;24.20
21085;DHT22;34247;50.064;19.970;2023-03-01T04:54:02;16.80;24.20
21085;DHT22;34247;50.064;19.970;2023-03-01T04:55:08;16.80;24.20
21085;DHT22;34247;50.064;19.970;2023-03-01T04:56:13;16.80;24.20
21085;DHT22;34247;50.064;19.970;2023-03-01T04:57:18;16.80;24.30
21085;DHT22;34247;50.064;19.970;2023-03-01T04:58:24;16.80;24.30
21085;DHT22;34247;50.064;19.970;2023-03-01T04:59:30;16.80;24.30
21085;DHT22;34247;50.064;19.970;2023-03-01T05:00:34;16.80;24.20
21085;DHT22;34247;50.064;19.970;2023-03-01T05:01:38;16.80;24.20
21085;DHT22;34247;50.064;19.970;2023-03-01T05:02:42;16.80;24.20
21085;DHT22;34247;50.064;19.970;2023-03-01T05:03:49;16.80;24.20
21085;DHT22;34247;50.064;19.970;2023-03-01T05:04:54;16.80;24.20
21085;DHT22;34247;50.064;19.970;2023-03-01T05:06:00;16.80;24.20
21085;DHT22;34247;50.064;19.970;2023-03-01T05:07:04;16.80;24.20
21085;DHT22;34247;50.064;19.970;2023-03-01T05:08:12;16.80;24.30
21085;DHT22;34247;50.064;19.970;2023-03-01T05:09:24;16.80;24.30
21085;DHT22;34247;50.064;19.970;2023-03-01T05:10:30;16.80;24.30
21085;DHT22;34247;50.064;19.970;2023-03-01T05:11:35;16.80;24.30
21085;DHT22;34247;50.064;19.970;2023-03-01T05:12:39;16.80;24.30
21085;DHT22;34247;50.064;19.970;2023-03-01T05:13:43;16.80;24.30
21085;DHT22;34247;50.064;19.970;2023-03-01T05:14:47;16.80;24.40
21085;DHT22;34247;50.064;19.970;2023-03-01T05:15:59;16.70;24.30
21085;DHT22;34247;50.064;19.970;2023-03-01T05:17:04;16.80;24.40
21085;DHT22;34247;50.064;19.970;2023-03-01T05:18:11;16.70;24.40
21085;DHT22;34247;50.064;19.970;2023-03-01T05:19:15;16.80;24.50
21085;DHT22;34247;50.064;19.970;2023-03-01T05:20:19;16.80;24.50
21085;DHT22;34247;50.064;19.970;2023-03-01T05:21:26;16.80;24.50
21085;DHT22;34247;50.064;19.970;2023-03-01T05:22:30;16.80;24.50
21085;DHT22;34247;50.064;19.970;2023-03-01T05:23:35;16.70;24.50
21085;DHT22;34247;50.064;19.970;2023-03-01T05:24:40;16.80;24.60
21085;DHT22;34247;50.064;19.970;2023-03-01T05:25:44;16.80;24.60
21085;DHT22;34247;50.064;19.970;2023-03-01T05:26:50;16.80;24.60
21085;DHT22;34247;50.064;19.970;2023-03-01T05:27:55;16.80;24.60
21085;DHT22;34247;50.064;19.970;2023-03-01T05:28:59;16.80;24.60
21085;DHT22;34247;50.064;19.970;2023-03-01T05:30:05;16.80;24.60
21085;DHT22;34247;50.064;19.970;2023-03-01T05:31:16;16.80;24.60
21085;DHT22;34247;50.064;19.970;2023-03-01T05:32:21;16.80;24.60
21085;DHT22;34247;50.064;19.970;2023-03-01T05:33:26;16.80;24.60
21085;DHT22;34247;50.064;19.970;2023-03-01T05:34:32;16.80;24.60
21085;DHT22;34247;50.064;19.970;2023-03-01T05:35:37;16.80;24.50
21085;DHT22;34247;50.064;19.970;2023-03-01T05:36:40;16.80;24.50
21085;DHT22;34247;50.064;19.970;2023-03-01T05:37:46;16.80;24.40
21085;DHT22;34247;50.064;19.970;2023-03-01T05:38:51;16.90;24.50
21085;DHT22;34247;50.064;19.970;2023-03-01T05:39:55;16.90;24.50
21085;DHT22;34247;50.064;19.970;2023-03-01T05:40:59;16.80;24.40
21085;DHT22;34247;50.064;19.970;2023-03-01T05:42:03;16.80;24.40
21085;DHT22;34247;50.064;19.970;2023-03-01T05:43:11;16.80;24.40
21085;DHT22;34247;50.064;19.970;2023-03-01T05:44:16;16.90;24.40
21085;DHT22;34247;50.064;19.970;2023-03-01T05:45:21;16.80;24.40
21085;DHT22;34247;50.064;19.970;2023-03-01T05:46:27;16.80;24.30
21085;DHT22;34247;50.064;19.970;2023-03-01T05:47:33;16.90;24.40
21085;DHT22;34247;50.064;19.970;2023-03-01T05:48:36;16.80;24.30
21085;DHT22;34247;50.064;19.970;2023-03-01T05:49:42;16.80;24.40
21085;DHT22;34247;50.064;19.970;2023-03-01T05:50:46;16.80;24.40
21085;DHT22;34247;50.064;19.970;2023-03-01T05:51:52;16.80;24.40
21085;DHT22;34247;50.064;19.970;2023-03-01T05:53:11;16.80;24.40
21085;DHT22;34247;50.064;19.970;2023-03-01T05:54:18;16.80;24.40
21085;DHT22;34247;50.064;19.970;2023-03-01T05:55:24;16.90;24.40
21085;DHT22;34247;50.064;19.970;2023-03-01T05:56:30;16.90;24.40
21085;DHT22;34247;50.064;19.970;2023-03-01T05:57:39;16.90;24.40
21085;DHT22;34247;50.064;19.970;2023-03-01T05:58:43;16.90;24.40
21085;DHT22;34247;50.064;19.970;2023-03-01T05:59:47;16.90;24.40
21085;DHT22;34247;50.064;19.970;2023-03-01T06:00:51;16.90;24.40
21085;DHT22;34247;50.064;19.970;2023-03-01T06:01:57;16.90;24.40
21085;DHT22;34247;50.064;19.970;2023-03-01T06:03:01;16.90;24.50
21085;DHT22;34247;50.064;19.970;2023-03-01T06:04:10;16.90;24.50
21085;DHT22;34247;50.064;19.970;2023-03-01T06:05:15;16.90;24.50
21085;DHT22;34247;50.064;19.970;2023-03-01T06:06:19;16.90;24.50
21085;DHT22;34247;50.064;19.970;2023-03-01T06:07:23;16.90;24.60
21085;DHT22;34247;50.064;19.970;2023-03-01T06:08:27;16.90;24.60
21085;DHT22;34247;50.064;19.970;2023-03-01T06:09:31;16.90;24.60
21085;DHT22;34247;50.064;19.970;2023-03-01T06:10:34;16.90;24.60
21085;DHT22;34247;50.064;19.970;2023-03-01T06:11:38;16.90;24.60
21085;DHT22;34247;50.064;19.970;2023-03-01T06:12:43;16.90;24.60
21085;DHT22;34247;50.064;19.970;2023-03-01T06:13:47;16.90;24.60
21085;DHT22;34247;50.064;19.970;2023-03-01T06:14:51;16.90;24.60
21085;DHT22;34247;50.064;19.970;2023-03-01T06:15:55;16.90;24.60
21085;DHT22;34247;50.064;19.970;2023-03-01T06:16:59;17.00;24.60
21085;DHT22;34247;50.064;19.970;2023-03-01T06:18:03;17.00;24.60
21085;DHT22;34247;50.064;19.970;2023-03-01T06:19:11;17.00;24.50
21085;DHT22;34247;50.064;19.970;2023-03-01T06:20:20;17.00;24.50
21085;DHT22;34247;50.064;19.970;2023-03-01T06:21:26;17.10;24.60
21085;DHT22;34247;50.064;19.970;2023-03-01T06:22:30;17.10;25.10
21085;DHT22;34247;50.064;19.970;2023-03-01T06:23:34;17.00;24.50
21085;DHT22;34247;50.064;19.970;2023-03-01T06:24:38;17.10;24.60
21085;DHT22;34247;50.064;19.970;2023-03-01T06:25:41;17.10;24.60
21085;DHT22;34247;50.064;19.970;2023-03-01T06:26:45;17.10;24.50
21085;DHT22;34247;50.064;19.970;2023-03-01T06:27:49;17.10;24.50
21085;DHT22;34247;50.064;19.970;2023-03-01T06:28:53;17.20;24.60
21085;DHT22;34247;50.064;19.970;2023-03-01T06:29:59;17.20;24.50
21085;DHT22;34247;50.064;19.970;2023-03-01T06:31:09;17.20;24.60
21085;DHT22;34247;50.064;19.970;2023-03-01T06:32:14;17.20;24.60
21085;DHT22;34247;50.064;19.970;2023-03-01T06:33:19;17.20;24.60
21085;DHT22;34247;50.064;19.970;2023-03-01T06:34:30;17.20;24.60
21085;DHT22;34247;50.064;19.970;2023-03-01T06:35:34;17.30;24.50
21085;DHT22;34247;50.064;19.970;2023-03-01T06:36:40;17.30;24.50
21085;DHT22;34247;50.064;19.970;2023-03-01T06:37:45;17.30;24.50
21085;DHT22;34247;50.064;19.970;2023-03-01T06:38:53;17.30;24.50
21085;DHT22;34247;50.064;19.970;2023-03-01T06:40:00;17.30;24.50
21085;DHT22;34247;50.064;19.970;2023-03-01T06:41:20;17.40;24.50
21085;DHT22;34247;50.064;19.970;2023-03-01T06:42:31;17.40;24.50
21085;DHT22;34247;50.064;19.970;2023-03-01T06:43:52;17.40;24.50
21085;DHT22;34247;50.064;19.970;2023-03-01T06:44:58;17.40;24.50
21085;DHT22;34247;50.064;19.970;2023-03-01T06:46:04;17.40;24.40
21085;DHT22;34247;50.064;19.970;2023-03-01T06:47:11;17.40;25.00
21085;DHT22;34247;50.064;19.970;2023-03-01T06:48:18;17.40;24.40
21085;DHT22;34247;50.064;19.970;2023-03-01T06:49:24;17.40;24.40
21085;DHT22;34247;50.064;19.970;2023-03-01T06:50:28;17.50;24.50
21085;DHT22;34247;50.064;19.970;2023-03-01T06:51:32;17.50;24.40
21085;DHT22;34247;50.064;19.970;2023-03-01T06:52:35;17.50;24.40
21085;DHT22;34247;50.064;19.970;2023-03-01T06:53:46;17.50;24.40
21085;DHT22;34247;50.064;19.970;2023-03-01T06:54:50;17.50;24.30
21085;DHT22;34247;50.064;19.970;2023-03-01T06:55:58;17.60;24.40
21085;DHT22;34247;50.064;19.970;2023-03-01T06:57:16;17.60;24.40
21085;DHT22;34247;50.064;19.970;2023-03-01T06:58:29;17.60;24.40
21085;DHT22;34247;50.064;19.970;2023-03-01T06:59:34;17.60;24.40
21085;DHT22;34247;50.064;19.970;2023-03-01T07:00:38;17.60;24.40
21085;DHT22;34247;50.064;19.970;2023-03-01T07:01:44;17.70;24.40
21085;DHT22;34247;50.064;19.970;2023-03-01T07:02:48;17.70;24.40
21085;DHT22;34247;50.064;19.970;2023-03-01T07:03:52;17.70;24.40